createdAt,value
2017-12-04T00:01:57.161Z,101792.14
2017-12-04T00:04:31.961Z,101786.88
2017-12-04T00:07:07.195Z,101786.16
2017-12-04T00:09:42.084Z,101780.75
2017-12-04T00:12:17.046Z,101773.59
2017-12-04T00:14:52.384Z,101788.39
2017-12-04T00:17:26.908Z,101782.55
2017-12-04T00:20:02.084Z,101779.47
2017-12-04T00:22:37.164Z,101774.08
2017-12-04T00:25:12.073Z,101775.58
2017-12-04T00:27:46.805Z,101773.67
2017-12-04T00:30:21.956Z,101771.85
2017-12-04T00:32:56.632Z,101777.89
2017-12-04T00:35:31.893Z,101779.13
2017-12-04T00:38:06.927Z,101778.55
2017-12-04T00:40:41.884Z,101777.62
2017-12-04T00:43:16.825Z,101774.71
2017-12-04T00:45:51.620Z,101781.52
2017-12-04T00:48:26.806Z,101787.14
2017-12-04T00:51:01.833Z,101789.72
2017-12-04T00:53:36.925Z,101787.34
2017-12-04T00:56:12.193Z,101783.81
2017-12-04T00:58:47.104Z,101786.64
2017-12-04T01:01:21.652Z,101780.70
2017-12-04T01:03:56.478Z,101775.53
2017-12-04T01:06:31.137Z,101778.17
2017-12-04T01:09:06.363Z,101784.45
2017-12-04T01:11:41.721Z,101786.00
2017-12-04T01:14:16.977Z,101792.25
2017-12-04T01:16:51.728Z,101784.41
2017-12-04T01:19:26.144Z,101788.39
2017-12-04T01:22:01.308Z,101794.52
2017-12-04T01:24:36.229Z,101794.06
2017-12-04T01:27:11.189Z,101794.45
2017-12-04T01:29:46.385Z,101785.87
2017-12-04T01:32:21.167Z,101791.27
2017-12-04T01:34:56.220Z,101796.14
2017-12-04T01:37:31.152Z,101803.52
2017-12-04T01:40:06.115Z,101803.76
2017-12-04T01:42:41.038Z,101802.55
2017-12-04T01:45:16.116Z,101799.14
2017-12-04T01:47:51.200Z,101802.25
2017-12-04T01:50:26.397Z,101801.97
2017-12-04T01:53:00.592Z,101789.28
2017-12-04T01:55:36.008Z,101796.87
2017-12-04T01:58:11.155Z,101801.17
2017-12-04T02:00:46.043Z,101801.48
2017-12-04T02:03:21.136Z,101805.25
2017-12-04T02:05:56.433Z,101803.67
2017-12-04T02:08:31.246Z,101803.77
2017-12-04T02:11:06.190Z,101803.64
2017-12-04T02:13:40.696Z,101785.63
2017-12-04T02:16:15.525Z,101809.80
2017-12-04T02:18:50.580Z,101804.44
2017-12-04T02:21:24.930Z,101798.53
2017-12-04T02:23:59.224Z,101799.75
2017-12-04T02:26:33.364Z,101798.94
2017-12-04T02:29:08.223Z,101798.69
2017-12-04T02:31:43.231Z,101810.49
2017-12-04T02:34:17.860Z,101800.48
2017-12-04T02:36:52.685Z,101804.53
2017-12-04T02:39:27.736Z,101800.80
2017-12-04T02:42:02.245Z,101798.61
2017-12-04T02:44:37.113Z,101796.02
2017-12-04T02:47:11.717Z,101804.45
2017-12-04T02:49:46.552Z,101796.95
2017-12-04T02:52:21.204Z,101797.47
2017-12-04T02:54:56.049Z,101798.94
2017-12-04T02:57:30.257Z,101788.80
2017-12-04T03:00:05.157Z,101793.22
2017-12-04T03:02:40.184Z,101788.14
2017-12-04T03:05:15.292Z,101783.89
2017-12-04T03:07:50.214Z,101784.94
2017-12-04T03:10:25.332Z,101782.87
2017-12-04T03:13:00.541Z,101784.61
2017-12-04T03:15:35.736Z,101777.69
2017-12-04T03:18:10.496Z,101774.80
2017-12-04T03:20:45.052Z,101780.00
2017-12-04T03:23:19.633Z,101777.04
2017-12-04T03:25:53.804Z,101778.34
2017-12-04T03:28:27.920Z,101778.09
2017-12-04T03:31:02.773Z,101785.44
2017-12-04T03:33:37.584Z,101776.03
2017-12-04T03:36:12.528Z,101797.77
2017-12-04T03:38:46.792Z,101800.88
2017-12-04T03:41:21.722Z,101792.85
2017-12-04T03:43:56.701Z,101790.45
2017-12-04T03:46:31.516Z,101778.21
2017-12-04T03:49:06.669Z,101789.08
2017-12-04T03:51:41.512Z,101783.84
2017-12-04T03:54:16.077Z,101778.66
2017-12-04T03:56:50.977Z,101774.23
2017-12-04T03:59:25.868Z,101785.34
2017-12-04T04:02:00.656Z,101790.58
2017-12-04T04:04:35.888Z,101796.41
2017-12-04T04:07:10.996Z,101806.38
2017-12-04T04:09:45.780Z,101808.46
2017-12-04T04:12:20.917Z,101812.43
2017-12-04T04:14:55.872Z,101809.44
2017-12-04T04:17:30.584Z,101812.27
2017-12-04T04:20:05.556Z,101818.00
2017-12-04T04:22:40.237Z,101815.14
2017-12-04T04:25:15.422Z,101803.15
2017-12-04T04:27:50.352Z,101806.38
2017-12-04T04:30:25.617Z,101822.98
2017-12-04T04:33:00.539Z,101830.61
2017-12-04T04:35:35.036Z,101838.31
2017-12-04T04:38:10.027Z,101832.44
2017-12-04T04:40:44.902Z,101838.52
2017-12-04T04:43:19.360Z,101837.30
2017-12-04T04:45:54.413Z,101828.61
2017-12-04T04:48:29.098Z,101822.41
2017-12-04T04:51:04.197Z,101838.48
2017-12-04T04:53:38.764Z,101832.36
2017-12-04T04:56:13.908Z,101828.22
2017-12-04T04:58:48.424Z,101817.70
2017-12-04T05:01:23.693Z,101825.75
2017-12-04T05:03:58.636Z,101832.15
2017-12-04T05:06:33.601Z,101830.73
2017-12-04T05:09:08.805Z,101830.36
2017-12-04T05:11:43.729Z,101836.05
2017-12-04T05:14:18.240Z,101837.98
2017-12-04T05:16:53.501Z,101831.66
2017-12-04T05:19:28.080Z,101833.67
2017-12-04T05:22:03.200Z,101823.95
2017-12-04T05:24:37.861Z,101825.85
2017-12-04T05:27:13.024Z,101830.23
2017-12-04T05:29:47.853Z,101827.97
2017-12-04T05:32:22.248Z,101830.80
2017-12-04T05:34:57.277Z,101822.54
2017-12-04T05:37:32.273Z,101839.20
2017-12-04T05:40:07.174Z,101842.84
2017-12-04T05:42:42.412Z,101840.81
2017-12-04T05:45:17.573Z,101850.92
2017-12-04T05:47:52.584Z,101851.97
2017-12-04T05:50:27.468Z,101853.39
2017-12-04T05:53:02.756Z,101858.86
2017-12-04T05:55:37.504Z,101867.13
2017-12-04T05:58:12.400Z,101868.19
2017-12-04T06:00:47.336Z,101871.97
2017-12-04T06:03:22.601Z,101868.33
2017-12-04T06:05:57.124Z,101869.09
2017-12-04T06:08:31.941Z,101865.33
2017-12-04T06:11:07.267Z,101868.01
2017-12-04T06:13:42.223Z,101863.99
2017-12-04T06:16:16.852Z,101863.78
2017-12-04T06:18:51.782Z,101864.84
2017-12-04T06:21:26.712Z,101865.41
2017-12-04T06:24:01.934Z,101870.58
2017-12-04T06:26:37.088Z,101869.32
2017-12-04T06:29:12.124Z,101875.04
2017-12-04T06:31:46.956Z,101874.52
2017-12-04T06:34:21.685Z,101875.84
2017-12-04T06:36:56.612Z,101871.09
2017-12-04T06:39:31.568Z,101875.22
2017-12-04T06:42:06.784Z,101871.73
2017-12-04T06:44:41.640Z,101877.27
2017-12-04T06:47:16.876Z,101883.95
2017-12-04T06:49:51.716Z,101887.41
2017-12-04T06:52:26.136Z,101890.52
2017-12-04T06:55:01.077Z,101901.92
2017-12-04T06:57:35.656Z,101905.94
2017-12-04T07:00:10.611Z,101904.59
2017-12-04T07:02:45.896Z,101905.52
2017-12-04T07:05:20.808Z,101911.70
2017-12-04T07:07:55.715Z,101919.56
2017-12-04T07:10:30.640Z,101916.81
2017-12-04T07:13:05.572Z,101933.02
2017-12-04T07:15:39.979Z,101936.15
2017-12-04T07:18:14.737Z,101944.66
2017-12-04T07:20:49.793Z,101946.25
2017-12-04T07:23:24.696Z,101943.67
2017-12-04T07:28:30.500Z,101943.52
2017-12-04T07:31:05.145Z,101952.81
2017-12-04T07:33:40.247Z,101946.01
2017-12-04T07:36:14.880Z,101955.13
2017-12-04T07:38:49.790Z,101955.72
2017-12-04T07:41:24.912Z,101964.16
2017-12-04T07:43:59.641Z,101969.77
2017-12-04T07:46:34.537Z,101973.92
2017-12-04T07:49:09.416Z,101978.79
2017-12-04T07:51:44.321Z,101982.92
2017-12-04T07:54:19.200Z,101984.78
2017-12-04T07:56:53.805Z,101981.77
2017-12-04T07:59:29.048Z,101988.14
2017-12-04T08:02:03.908Z,101999.66
2017-12-04T08:04:38.351Z,101992.67
2017-12-04T08:07:13.208Z,102001.99
2017-12-04T08:09:48.476Z,102007.39
2017-12-04T08:12:23.695Z,102004.01
2017-12-04T08:14:58.069Z,102018.13
2017-12-04T08:17:33.374Z,102014.20
2017-12-04T08:20:08.021Z,102021.52
2017-12-04T08:22:42.774Z,102037.14
2017-12-04T08:25:17.622Z,102033.94
2017-12-04T08:27:52.520Z,102045.39
2017-12-04T08:30:26.761Z,102057.29
2017-12-04T08:33:01.404Z,102056.87
2017-12-04T08:35:36.374Z,102052.98
2017-12-04T08:38:11.689Z,102044.50
2017-12-04T08:40:46.473Z,102049.26
2017-12-04T08:43:21.264Z,102043.75
2017-12-04T08:45:56.164Z,102053.72
2017-12-04T08:48:31.151Z,102052.12
2017-12-04T08:51:06.179Z,102051.38
2017-12-04T08:53:41.396Z,102055.77
2017-12-04T08:56:16.766Z,102062.61
2017-12-04T08:58:51.732Z,102071.05
2017-12-04T09:01:26.861Z,102071.02
2017-12-04T09:04:02.177Z,102071.91
2017-12-04T09:06:37.476Z,102076.11
2017-12-04T09:09:12.189Z,102081.61
2017-12-04T09:11:47.095Z,102079.86
2017-12-04T09:14:22.457Z,102084.28
2017-12-04T09:16:57.281Z,102091.72
2017-12-04T09:19:32.520Z,102089.89
2017-12-04T09:22:07.549Z,102091.68
2017-12-04T09:24:42.401Z,102088.41
2017-12-04T09:27:17.064Z,102099.60
2017-12-04T09:29:52.169Z,102107.22
2017-12-04T09:32:27.117Z,102109.79
2017-12-04T09:35:02.085Z,102109.48
2017-12-04T09:37:36.438Z,102112.69
2017-12-04T09:40:10.948Z,102112.50
2017-12-04T09:42:45.980Z,102115.03
2017-12-04T09:45:20.744Z,102111.54
2017-12-04T09:47:55.648Z,102105.22
2017-12-04T09:50:31.176Z,102104.14
2017-12-04T09:53:05.688Z,102091.65
2017-12-04T09:55:41.149Z,102098.61
2017-12-04T09:58:15.905Z,102096.78
2017-12-04T10:00:50.397Z,102095.70
2017-12-04T10:03:25.566Z,102107.01
2017-12-04T10:06:00.478Z,102106.04
2017-12-04T10:08:35.084Z,102105.94
2017-12-04T10:11:09.969Z,102105.30
2017-12-04T10:13:44.678Z,102110.55
2017-12-04T10:16:20.017Z,102106.05
2017-12-04T10:18:54.649Z,102105.89
2017-12-04T10:21:29.477Z,102106.97
2017-12-04T10:24:04.629Z,102108.08
2017-12-04T10:26:39.801Z,102116.75
2017-12-04T10:29:14.597Z,102114.39
2017-12-04T10:31:49.812Z,102117.59
2017-12-04T10:34:24.760Z,102114.80
2017-12-04T10:36:59.800Z,102124.98
2017-12-04T10:39:34.669Z,102121.91
2017-12-04T10:42:09.488Z,102125.14
2017-12-04T10:44:43.712Z,102129.69
2017-12-04T10:47:17.832Z,102139.73
2017-12-04T10:49:52.779Z,102136.94
2017-12-04T10:52:27.645Z,102139.23
2017-12-04T10:55:02.236Z,102144.83
2017-12-04T10:57:37.065Z,102139.26
2017-12-04T11:00:11.885Z,102153.77
2017-12-04T11:02:47.104Z,102148.37
2017-12-04T11:05:21.889Z,102135.20
2017-12-04T11:07:56.602Z,102136.09
2017-12-04T11:10:31.618Z,102143.09
2017-12-04T11:13:06.428Z,102140.95
2017-12-04T11:15:41.224Z,102137.61
2017-12-04T11:18:15.777Z,102125.36
2017-12-04T11:20:50.572Z,102130.38
2017-12-04T11:23:25.648Z,102135.05
2017-12-04T11:25:59.733Z,102135.41
2017-12-04T11:28:35.920Z,102136.43
2017-12-04T11:31:10.784Z,102146.27
2017-12-04T11:33:45.196Z,102147.12
2017-12-04T11:36:19.757Z,102148.02
2017-12-04T11:38:54.642Z,102148.91
2017-12-04T11:41:29.515Z,102150.29
2017-12-04T11:44:04.517Z,102146.42
2017-12-04T11:46:39.780Z,102154.07
2017-12-04T11:49:14.707Z,102149.89
2017-12-04T11:51:49.181Z,102147.08
2017-12-04T11:54:24.211Z,102145.81
2017-12-04T11:56:58.647Z,102153.30
2017-12-04T11:59:33.464Z,102147.20
2017-12-04T12:02:08.591Z,102156.42
2017-12-04T12:04:43.833Z,102161.27
2017-12-04T12:07:18.669Z,102158.16
2017-12-04T12:09:53.981Z,102154.86
2017-12-04T12:12:28.840Z,102156.16
2017-12-04T12:15:03.909Z,102154.88
2017-12-04T12:17:39.116Z,102149.84
2017-12-04T12:20:14.232Z,102150.94
2017-12-04T12:22:49.269Z,102151.34
2017-12-04T12:25:24.277Z,102146.06
2017-12-04T12:27:59.083Z,102146.47
2017-12-04T12:30:34.005Z,102149.56
2017-12-04T12:33:08.791Z,102150.17
2017-12-04T12:35:43.896Z,102154.56
2017-12-04T12:38:19.128Z,102151.06
2017-12-04T12:40:54.036Z,102151.63
2017-12-04T12:43:29.084Z,102151.59
2017-12-04T12:46:04.269Z,102152.93
2017-12-04T12:48:39.252Z,102147.85
2017-12-04T12:51:14.408Z,102154.48
2017-12-04T12:53:49.645Z,102151.95
2017-12-04T12:56:24.528Z,102163.79
2017-12-04T12:58:59.459Z,102155.81
2017-12-04T13:01:34.413Z,102167.03
2017-12-04T13:04:09.512Z,102168.83
2017-12-04T13:06:44.617Z,102155.41
2017-12-04T13:09:19.717Z,102164.19
2017-12-04T13:11:54.496Z,102151.30
2017-12-04T13:14:30.048Z,102153.57
2017-12-04T13:17:04.987Z,102158.53
2017-12-04T13:19:40.052Z,102159.76
2017-12-04T13:22:14.828Z,102161.27
2017-12-04T13:24:49.644Z,102154.23
2017-12-04T13:27:24.901Z,102158.17
2017-12-04T13:29:59.713Z,102153.70
2017-12-04T13:32:45.802Z,102159.23
2017-12-04T13:35:31.926Z,102156.42
2017-12-04T13:38:06.637Z,102152.89
2017-12-04T13:40:41.612Z,102160.77
2017-12-04T13:43:16.712Z,102154.39
2017-12-04T13:45:51.453Z,102152.52
2017-12-04T13:48:26.196Z,102150.68
2017-12-04T13:51:00.996Z,102149.75
2017-12-04T13:53:35.970Z,102150.64
2017-12-04T13:56:10.890Z,102157.72
2017-12-04T13:58:46.113Z,102160.82
2017-12-04T14:01:21.354Z,102173.38
2017-12-04T14:03:56.687Z,102167.86
2017-12-04T14:06:31.642Z,102173.59
2017-12-04T14:09:06.488Z,102170.38
2017-12-04T14:11:41.477Z,102172.66
2017-12-04T14:14:16.809Z,102165.73
2017-12-04T14:16:52.105Z,102175.09
2017-12-04T14:19:27.332Z,102176.06
2017-12-04T14:22:02.394Z,102168.02
2017-12-04T14:24:37.297Z,102185.50
2017-12-04T14:27:12.317Z,102186.27
2017-12-04T14:29:47.652Z,102194.44
2017-12-04T14:32:22.008Z,102201.84
2017-12-04T14:34:56.744Z,102210.83
2017-12-04T14:37:31.632Z,102225.55
2017-12-04T14:40:06.140Z,102225.34
2017-12-04T14:42:41.090Z,102210.59
2017-12-04T14:45:16.568Z,102214.09
2017-12-04T14:47:51.425Z,102212.82
2017-12-04T14:50:26.625Z,102225.39
2017-12-04T14:53:01.093Z,102224.44
2017-12-04T14:55:35.256Z,102227.14
2017-12-04T14:58:11.007Z,102223.37
2017-12-04T15:00:46.329Z,102234.13
2017-12-04T15:03:21.003Z,102240.77
2017-12-04T15:05:55.713Z,102239.33
2017-12-04T15:08:30.725Z,102246.66
2017-12-04T15:11:05.053Z,102254.08
2017-12-04T15:13:39.065Z,102252.02
2017-12-04T15:16:13.949Z,102251.82
2017-12-04T15:18:49.014Z,102249.58
2017-12-04T15:21:24.169Z,102261.23
2017-12-04T15:23:58.998Z,102262.97
2017-12-04T15:26:33.876Z,102262.97
2017-12-04T15:29:09.069Z,102274.03
2017-12-04T15:31:44.107Z,102298.98
2017-12-04T15:34:18.220Z,102302.78
2017-12-04T15:36:53.250Z,102297.87
2017-12-04T15:39:27.245Z,102303.09
2017-12-04T15:42:01.908Z,102308.61
2017-12-04T15:44:36.937Z,102312.97
2017-12-04T15:47:11.754Z,102326.80
2017-12-04T15:49:46.732Z,102314.73
2017-12-04T15:52:21.657Z,102325.15
2017-12-04T15:54:57.036Z,102318.84
2017-12-04T15:57:31.746Z,102324.45
2017-12-04T16:00:06.744Z,102324.13
2017-12-04T16:02:41.128Z,102332.42
2017-12-04T16:05:16.201Z,102330.86
2017-12-04T16:07:50.883Z,102331.36
2017-12-04T16:10:25.479Z,102331.96
2017-12-04T16:13:00.460Z,102339.89
2017-12-04T16:15:35.412Z,102334.84
2017-12-04T16:18:10.612Z,102336.16
2017-12-04T16:20:45.492Z,102334.62
2017-12-04T16:23:20.396Z,102332.65
2017-12-04T16:25:55.401Z,102334.95
2017-12-04T16:28:30.784Z,102320.19
2017-12-04T16:31:05.717Z,102337.45
2017-12-04T16:33:40.350Z,102342.48
2017-12-04T16:36:15.313Z,102345.06
2017-12-04T16:38:50.216Z,102351.50
2017-12-04T16:41:24.825Z,102352.58
2017-12-04T16:43:59.656Z,102356.83
2017-12-04T16:46:34.095Z,102355.78
2017-12-04T16:49:09.084Z,102350.37
2017-12-04T16:51:44.968Z,102352.05
2017-12-04T16:54:19.525Z,102358.58
2017-12-04T16:56:54.436Z,102364.30
2017-12-04T16:59:29.389Z,102367.39
2017-12-04T17:02:04.337Z,102365.53
2017-12-04T17:04:39.080Z,102369.07
2017-12-04T17:07:13.568Z,102375.65
2017-12-04T17:09:48.813Z,102389.63
2017-12-04T17:12:23.618Z,102380.52
2017-12-04T17:14:58.920Z,102382.03
2017-12-04T17:17:33.616Z,102389.20
2017-12-04T17:20:08.584Z,102402.74
2017-12-04T17:22:43.129Z,102396.77
2017-12-04T17:25:17.201Z,102398.97
2017-12-04T17:27:52.029Z,102408.55
2017-12-04T17:30:27.158Z,102415.39
2017-12-04T17:33:02.115Z,102406.36
2017-12-04T17:35:36.729Z,102417.27
2017-12-04T17:38:11.340Z,102404.53
2017-12-04T17:40:46.172Z,102394.60
2017-12-04T17:43:21.203Z,102391.95
2017-12-04T17:45:56.565Z,102401.38
2017-12-04T17:48:31.406Z,102406.05
2017-12-04T17:51:06.509Z,102414.50
2017-12-04T17:53:41.960Z,102417.00
2017-12-04T17:56:16.842Z,102416.48
2017-12-04T17:58:51.825Z,102417.90
2017-12-04T18:01:26.849Z,102420.89
2017-12-04T18:04:01.492Z,102418.55
2017-12-04T18:06:35.712Z,102420.53
2017-12-04T18:09:10.585Z,102420.71
2017-12-04T18:11:45.558Z,102427.77
2017-12-04T18:14:20.993Z,102425.32
2017-12-04T18:16:56.037Z,102417.48
2017-12-04T18:19:30.607Z,102422.27
2017-12-04T18:22:05.303Z,102419.31
2017-12-04T18:24:40.203Z,102434.42
2017-12-04T18:27:15.172Z,102431.73
2017-12-04T18:29:49.576Z,102432.28
2017-12-04T18:32:23.884Z,102434.95
2017-12-04T18:34:58.770Z,102429.53
2017-12-04T18:37:32.838Z,102437.56
2017-12-04T18:40:07.281Z,102437.27
2017-12-04T18:42:42.411Z,102435.76
2017-12-04T18:45:17.349Z,102436.45
2017-12-04T18:47:52.229Z,102436.17
2017-12-04T18:50:27.066Z,102439.78
2017-12-04T18:53:01.308Z,102438.95
2017-12-04T18:55:36.168Z,102447.98
2017-12-04T18:58:10.890Z,102449.08
2017-12-04T19:00:45.260Z,102447.94
2017-12-04T19:03:19.593Z,102448.41
2017-12-04T19:05:54.486Z,102443.02
2017-12-04T19:08:29.640Z,102445.47
2017-12-04T19:11:04.562Z,102436.41
2017-12-04T19:13:39.177Z,102447.89
2017-12-04T19:16:14.027Z,102450.66
2017-12-04T19:18:48.985Z,102447.30
2017-12-04T19:21:23.944Z,102446.52
2017-12-04T19:23:58.028Z,102450.81
2017-12-04T19:26:32.812Z,102453.02
2017-12-04T19:29:07.133Z,102455.86
2017-12-04T19:31:41.258Z,102456.09
2017-12-04T19:34:15.429Z,102458.48
2017-12-04T19:36:50.197Z,102455.18
2017-12-04T19:39:24.604Z,102460.16
2017-12-04T19:41:59.059Z,102471.53
2017-12-04T19:44:33.976Z,102478.45
2017-12-04T19:47:08.805Z,102474.65
2017-12-04T19:49:43.107Z,102476.44
2017-12-04T19:52:17.884Z,102475.06
2017-12-04T19:54:52.785Z,102483.89
2017-12-04T19:57:26.883Z,102484.21
2017-12-04T20:00:02.023Z,102482.61
2017-12-04T20:02:36.704Z,102478.89
2017-12-04T20:05:11.659Z,102486.31
2017-12-04T20:07:45.767Z,102491.22
2017-12-04T20:10:20.765Z,102483.63
2017-12-04T20:12:55.772Z,102483.47
2017-12-04T20:15:30.508Z,102481.37
2017-12-04T20:18:05.476Z,102482.45
2017-12-04T20:20:40.480Z,102488.66
2017-12-04T20:23:15.464Z,102487.39
2017-12-04T20:25:50.296Z,102485.64
2017-12-04T20:28:25.280Z,102479.34
2017-12-04T20:30:59.374Z,102484.67
2017-12-04T20:33:33.561Z,102492.38
2017-12-04T20:36:08.347Z,102484.95
2017-12-04T20:38:43.013Z,102485.64
2017-12-04T20:41:17.913Z,102486.74
2017-12-04T20:43:52.820Z,102495.30
2017-12-04T20:46:27.192Z,102497.95
2017-12-04T20:49:01.336Z,102499.88
2017-12-04T20:51:35.504Z,102496.74
2017-12-04T20:54:10.336Z,102505.23
2017-12-04T20:56:45.232Z,102508.94
2017-12-04T20:59:19.976Z,102514.47
2017-12-04T21:01:54.201Z,102512.78
2017-12-04T21:04:29.018Z,102510.55
2017-12-04T21:07:03.124Z,102514.50
2017-12-04T21:09:49.698Z,102518.94
2017-12-04T21:12:24.146Z,102513.89
2017-12-04T21:15:10.309Z,102509.70
2017-12-04T21:17:44.672Z,102514.52
2017-12-04T21:20:20.032Z,102517.64
2017-12-04T21:22:54.739Z,102517.47
2017-12-04T21:25:28.850Z,102511.56
2017-12-04T21:28:03.108Z,102519.71
2017-12-04T21:30:38.103Z,102518.95
2017-12-04T21:33:12.400Z,102528.95
2017-12-04T21:35:46.905Z,102531.59
2017-12-04T21:38:21.036Z,102522.94
2017-12-04T21:40:55.951Z,102530.75
2017-12-04T21:43:30.128Z,102531.27
2017-12-04T21:46:04.165Z,102534.08
2017-12-04T21:48:39.144Z,102537.07
2017-12-04T21:51:14.017Z,102540.00
2017-12-04T21:53:48.801Z,102539.48
2017-12-04T21:56:23.180Z,102536.94
2017-12-04T21:58:57.406Z,102534.19
2017-12-04T22:01:32.716Z,102529.20
2017-12-04T22:04:07.531Z,102535.42
2017-12-04T22:06:41.640Z,102529.92
2017-12-04T22:09:15.964Z,102535.63
2017-12-04T22:11:50.177Z,102533.53
2017-12-04T22:14:24.373Z,102542.95
2017-12-04T22:16:59.299Z,102547.42
2017-12-04T22:19:33.389Z,102543.91
2017-12-04T22:22:07.561Z,102546.88
2017-12-04T22:24:42.309Z,102548.21
2017-12-04T22:27:16.423Z,102548.59
2017-12-04T22:29:50.721Z,102548.76
2017-12-04T22:32:25.347Z,102549.66
2017-12-04T22:35:00.024Z,102552.30
2017-12-04T22:37:35.011Z,102550.00
2017-12-04T22:40:09.933Z,102552.37
2017-12-04T22:42:44.251Z,102563.23
2017-12-04T22:45:19.180Z,102554.17
2017-12-04T22:47:54.113Z,102554.86
2017-12-04T22:50:28.764Z,102558.36
2017-12-04T22:53:03.151Z,102560.16
2017-12-04T22:55:37.300Z,102552.48
2017-12-04T22:58:11.435Z,102555.23
2017-12-04T23:00:46.281Z,102560.88
2017-12-04T23:03:21.168Z,102558.81
2017-12-04T23:05:56.165Z,102568.75
2017-12-04T23:08:30.216Z,102565.93
2017-12-04T23:11:05.057Z,102568.17
2017-12-04T23:13:39.147Z,102568.30
2017-12-04T23:16:13.837Z,102563.73
2017-12-04T23:18:48.492Z,102568.61
2017-12-04T23:21:23.249Z,102568.34
2017-12-04T23:23:58.076Z,102568.44
2017-12-04T23:26:32.030Z,102570.23
2017-12-04T23:29:06.280Z,102570.70
2017-12-04T23:31:41.077Z,102567.06
2017-12-04T23:34:15.569Z,102569.58
2017-12-04T23:36:49.476Z,102566.38
2017-12-04T23:39:24.400Z,102568.58
2017-12-04T23:41:59.286Z,102562.33
2017-12-04T23:44:34.696Z,102564.21
2017-12-04T23:47:09.628Z,102568.02
2017-12-04T23:49:44.548Z,102563.20
2017-12-04T23:52:18.848Z,102562.80
2017-12-04T23:54:53.462Z,102561.90
2017-12-04T23:57:28.361Z,102563.66
